sensor_id;sensor_type;location;lat;lon;timestamp;temperature;humidity
9939;DHT22;5008;50.656;7.188;2023-12-22T04:49:01;7.10;99.90
9939;DHT22;5008;50.656;7.188;2023-12-22T04:51:27;7.10;99.90
9939;DHT22;5008;50.656;7.188;2023-12-22T04:53:54;7.10;99.90
9939;DHT22;5008;50.656;7.188;2023-12-22T04:56:21;7.10;99.90
9939;DHT22;5008;50.656;7.188;2023-12-22T04:58:48;7.10;99.90
9939;DHT22;5008;50.656;7.188;2023-12-22T05:01:15;7.10;99.90
9939;DHT22;5008;50.656;7.188;2023-12-22T05:03:43;7.10;99.90
9939;DHT22;5008;50.656;7.188;2023-12-22T05:06:11;7.20;99.90
9939;DHT22;5008;50.656;7.188;2023-12-22T05:08:38;7.10;99.90
9939;DHT22;5008;50.656;7.188;2023-12-22T05:11:05;7.20;99.90
9939;DHT22;5008;50.656;7.188;2023-12-22T05:13:33;7.20;99.90
9939;DHT22;5008;50.656;7.188;2023-12-22T05:15:59;7.30;99.90
9939;DHT22;5008;50.656;7.188;2023-12-22T05:18:27;7.40;99.90
9939;DHT22;5008;50.656;7.188;2023-12-22T05:20:54;7.40;99.90
9939;DHT22;5008;50.656;7.188;2023-12-22T05:23:22;7.50;99.90
9939;DHT22;5008;50.656;7.188;2023-12-22T05:25:50;7.50;99.90
9939;DHT22;5008;50.656;7.188;2023-12-22T05:28:17;7.50;99.90
9939;DHT22;5008;50.656;7.188;2023-12-22T05:30:49;7.70;99.90
9939;DHT22;5008;50.656;7.188;2023-12-22T05:33:16;7.70;99.90
9939;DHT22;5008;50.656;7.188;2023-12-22T05:35:42;7.80;99.90
9939;DHT22;5008;50.656;7.188;2023-12-22T05:38:09;7.80;99.90
9939;DHT22;5008;50.656;7.188;2023-12-22T05:40:37;8.00;99.90
9939;DHT22;5008;50.656;7.188;2023-12-22T05:43:04;7.90;99.90
9939;DHT22;5008;50.656;7.188;2023-12-22T05:45:31;8.00;99.90
9939;DHT22;5008;50.656;7.188;2023-12-22T05:47:58;8.10;99.90
9939;DHT22;5008;50.656;7.188;2023-12-22T05:50:25;8.10;99.90
9939;DHT22;5008;50.656;7.188;2023-12-22T05:52:51;8.20;99.90
9939;DHT22;5008;50.656;7.188;2023-12-22T05:55:28;8.20;99.90
9939;DHT22;5008;50.656;7.188;2023-12-22T05:57:56;8.20;99.90
9939;DHT22;5008;50.656;7.188;2023-12-22T06:00:23;8.20;99.90
9939;DHT22;5008;50.656;7.188;2023-12-22T06:02:50;8.30;99.90
9939;DHT22;5008;50.656;7.188;2023-12-22T06:05:17;8.30;99.90
9939;DHT22;5008;50.656;7.188;2023-12-22T06:07:44;8.30;99.90
9939;DHT22;5008;50.656;7.188;2023-12-22T06:10:10;8.30;99.90
9939;DHT22;5008;50.656;7.188;2023-12-22T06:12:37;8.40;99.90
9939;DHT22;5008;50.656;7.188;2023-12-22T06:15:07;8.40;99.90
9939;DHT22;5008;50.656;7.188;2023-12-22T06:17:33;8.40;99.90
9939;DHT22;5008;50.656;7.188;2023-12-22T06:20:00;8.40;99.90
9939;DHT22;5008;50.656;7.188;2023-12-22T06:22:30;8.40;99.90
9939;DHT22;5008;50.656;7.188;2023-12-22T06:24:58;8.40;99.90
9939;DHT22;5008;50.656;7.188;2023-12-22T06:27:24;8.50;99.90
9939;DHT22;5008;50.656;7.188;2023-12-22T06:29:50;8.40;99.90
9939;DHT22;5008;50.656;7.188;2023-12-22T06:32:19;8.40;99.90
9939;DHT22;5008;50.656;7.188;2023-12-22T06:34:46;8.40;99.90
9939;DHT22;5008;50.656;7.188;2023-12-22T06:37:13;8.40;99.90
9939;DHT22;5008;50.656;7.188;2023-12-22T06:39:40;8.40;99.90
9939;DHT22;5008;50.656;7.188;2023-12-22T06:42:07;8.40;99.90
9939;DHT22;5008;50.656;7.188;2023-12-22T06:44:37;8.40;99.90
9939;DHT22;5008;50.656;7.188;2023-12-22T06:47:04;8.30;99.90
9939;DHT22;5008;50.656;7.188;2023-12-22T06:49:33;8.30;99.90
9939;DHT22;5008;50.656;7.188;2023-12-22T06:52:00;8.40;99.90
9939;DHT22;5008;50.656;7.188;2023-12-22T06:54:27;8.40;99.90
9939;DHT22;5008;50.656;7.188;2023-12-22T06:56:54;8.30;99.90
9939;DHT22;5008;50.656;7.188;2023-12-22T06:59:21;8.30;99.90
9939;DHT22;5008;50.656;7.188;2023-12-22T07:01:48;8.30;99.90
9939;DHT22;5008;50.656;7.188;2023-12-22T07:04:15;8.40;99.90
9939;DHT22;5008;50.656;7.188;2023-12-22T07:06:44;8.30;99.90
9939;DHT22;5008;50.656;7.188;2023-12-22T07:09:31;8.30;99.90
9939;DHT22;5008;50.656;7.188;2023-12-22T07:11:58;8.30;99.90
9939;DHT22;5008;50.656;7.188;2023-12-22T07:14:25;8.30;99.90
9939;DHT22;5008;50.656;7.188;2023-12-22T07:16:52;8.20;99.90
9939;DHT22;5008;50.656;7.188;2023-12-22T07:19:19;8.00;99.90
9939;DHT22;5008;50.656;7.188;2023-12-22T07:21:47;7.80;99.90
9939;DHT22;5008;50.656;7.188;2023-12-22T07:24:19;7.70;99.90
9939;DHT22;5008;50.656;7.188;2023-12-22T07:26:45;7.60;99.90
9939;DHT22;5008;50.656;7.188;2023-12-22T07:29:12;7.50;99.90
9939;DHT22;5008;50.656;7.188;2023-12-22T07:31:39;7.50;99.90
9939;DHT22;5008;50.656;7.188;2023-12-22T07:34:06;7.40;99.90
9939;DHT22;5008;50.656;7.188;2023-12-22T07:36:43;7.40;99.90
9939;DHT22;5008;50.656;7.188;2023-12-22T07:39:11;7.40;99.90
9939;DHT22;5008;50.656;7.188;2023-12-22T07:41:38;7.40;99.90
9939;DHT22;5008;50.656;7.188;2023-12-22T07:44:05;7.40;99.90
9939;DHT22;5008;50.656;7.188;2023-12-22T07:46:32;7.50;99.90
9939;DHT22;5008;50.656;7.188;2023-12-22T07:48:59;7.50;99.90
9939;DHT22;5008;50.656;7.188;2023-12-22T07:51:26;7.50;99.90
9939;DHT22;5008;50.656;7.188;2023-12-22T07:53:53;7.50;99.90
9939;DHT22;5008;50.656;7.188;2023-12-22T07:56:21;7.60;99.90
9939;DHT22;5008;50.656;7.188;2023-12-22T07:58:55;7.50;99.90
9939;DHT22;5008;50.656;7.188;2023-12-22T08:01:22;7.50;99.90
9939;DHT22;5008;50.656;7.188;2023-12-22T08:03:49;7.40;99.90
9939;DHT22;5008;50.656;7.188;2023-12-22T08:06:16;7.40;99.90
9939;DHT22;5008;50.656;7.188;2023-12-22T08:08:43;7.50;99.90
9939;DHT22;5008;50.656;7.188;2023-12-22T08:11:09;7.50;99.90
9939;DHT22;5008;50.656;7.188;2023-12-22T08:13:37;7.50;99.90
9939;DHT22;5008;50.656;7.188;2023-12-22T08:16:05;7.50;99.90
9939;DHT22;5008;50.656;7.188;2023-12-22T08:18:31;7.50;99.90
9939;DHT22;5008;50.656;7.188;2023-12-22T08:20:58;7.60;99.90
9939;DHT22;5008;50.656;7.188;2023-12-22T08:23:25;7.70;99.90
9939;DHT22;5008;50.656;7.188;2023-12-22T08:25:52;7.70;99.90
9939;DHT22;5008;50.656;7.188;2023-12-22T08:28:19;7.80;99.90
9939;DHT22;5008;50.656;7.188;2023-12-22T08:30:47;8.00;99.90
9939;DHT22;5008;50.656;7.188;2023-12-22T08:33:13;8.10;99.90
9939;DHT22;5008;50.656;7.188;2023-12-22T08:35:40;8.10;99.90
9939;DHT22;5008;50.656;7.188;2023-12-22T08:38:07;8.10;99.90
9939;DHT22;5008;50.656;7.188;2023-12-22T08:40:34;8.10;99.90
9939;DHT22;5008;50.656;7.188;2023-12-22T08:43:01;8.20;99.90
9939;DHT22;5008;50.656;7.188;2023-12-22T08:45:28;8.20;99.90
9939;DHT22;5008;50.656;7.188;2023-12-22T08:47:57;8.30;99.90
9939;DHT22;5008;50.656;7.188;2023-12-22T08:50:24;8.30;99.90
9939;DHT22;5008;50.656;7.188;2023-12-22T08:52:51;8.30;99.90
9939;DHT22;5008;50.656;7.188;2023-12-22T08:55:18;8.40;99.90
9939;DHT22;5008;50.656;7.188;2023-12-22T08:57:45;8.40;99.90
9939;DHT22;5008;50.656;7.188;2023-12-22T09:00:12;8.50;99.90
9939;DHT22;5008;50.656;7.188;2023-12-22T09:02:40;8.50;99.90
9939;DHT22;5008;50.656;7.188;2023-12-22T09:05:09;8.60;99.90
9939;DHT22;5008;50.656;7.188;2023-12-22T09:07:35;8.50;99.90
9939;DHT22;5008;50.656;7.188;2023-12-22T09:10:06;8.60;99.90
9939;DHT22;5008;50.656;7.188;2023-12-22T09:12:33;8.60;99.90
9939;DHT22;5008;50.656;7.188;2023-12-22T09:14:59;8.70;99.90
9939;DHT22;5008;50.656;7.188;2023-12-22T09:17:26;8.70;99.90
9939;DHT22;5008;50.656;7.188;2023-12-22T09:19:54;8.70;99.90
9939;DHT22;5008;50.656;7.188;2023-12-22T09:22:22;8.80;99.90
9939;DHT22;5008;50.656;7.188;2023-12-22T09:24:49;8.80;99.90
9939;DHT22;5008;50.656;7.188;2023-12-22T09:27:16;8.80;99.90
9939;DHT22;5008;50.656;7.188;2023-12-22T09:29:42;8.80;99.90
9939;DHT22;5008;50.656;7.188;2023-12-22T09:32:09;8.90;99.90
9939;DHT22;5008;50.656;7.188;2023-12-22T09:34:36;8.90;99.90
9939;DHT22;5008;50.656;7.188;2023-12-22T09:37:04;8.90;99.90
9939;DHT22;5008;50.656;7.188;2023-12-22T09:39:32;9.00;99.90
9939;DHT22;5008;50.656;7.188;2023-12-22T09:41:59;9.00;99.90
9939;DHT22;5008;50.656;7.188;2023-12-22T09:44:31;9.00;99.90
9939;DHT22;5008;50.656;7.188;2023-12-22T09:46:59;9.10;99.90
9939;DHT22;5008;50.656;7.188;2023-12-22T09:49:27;9.10;99.90
9939;DHT22;5008;50.656;7.188;2023-12-22T09:51:55;9.10;99.90
9939;DHT22;5008;50.656;7.188;2023-12-22T09:54:23;9.20;99.90
9939;DHT22;5008;50.656;7.188;2023-12-22T09:56:53;9.20;99.90
9939;DHT22;5008;50.656;7.188;2023-12-22T09:59:21;9.20;99.90
9939;DHT22;5008;50.656;7.188;2023-12-22T10:01:50;9.20;99.90
9939;DHT22;5008;50.656;7.188;2023-12-22T10:04:19;9.30;99.90
9939;DHT22;5008;50.656;7.188;2023-12-22T10:06:48;9.30;99.90
9939;DHT22;5008;50.656;7.188;2023-12-22T10:09:16;9.30;99.90
9939;DHT22;5008;50.656;7.188;2023-12-22T10:11:43;9.30;99.90
9939;DHT22;5008;50.656;7.188;2023-12-22T10:14:12;9.20;99.90
9939;DHT22;5008;50.656;7.188;2023-12-22T10:16:46;9.30;99.90
9939;DHT22;5008;50.656;7.188;2023-12-22T10:19:13;9.30;99.90
9939;DHT22;5008;50.656;7.188;2023-12-22T10:21:40;9.30;99.90
9939;DHT22;5008;50.656;7.188;2023-12-22T10:24:07;9.30;99.90
9939;DHT22;5008;50.656;7.188;2023-12-22T10:26:34;9.40;99.90
9939;DHT22;5008;50.656;7.188;2023-12-22T10:29:03;9.40;99.90
9939;DHT22;5008;50.656;7.188;2023-12-22T10:31:40;9.40;99.90
9939;DHT22;5008;50.656;7.188;2023-12-22T10:34:06;9.40;99.90
9939;DHT22;5008;50.656;7.188;2023-12-22T10:36:33;9.30;99.90
9939;DHT22;5008;50.656;7.188;2023-12-22T10:39:00;9.40;99.90
9939;DHT22;5008;50.656;7.188;2023-12-22T10:41:27;9.40;99.90
9939;DHT22;5008;50.656;7.188;2023-12-22T10:43:54;9.40;99.90
9939;DHT22;5008;50.656;7.188;2023-12-22T10:46:21;9.30;99.90
9939;DHT22;5008;50.656;7.188;2023-12-22T10:48:52;9.40;99.90
9939;DHT22;5008;50.656;7.188;2023-12-22T10:51:19;9.30;99.90
9939;DHT22;5008;50.656;7.188;2023-12-22T10:53:46;9.40;99.90
9939;DHT22;5008;50.656;7.188;2023-12-22T10:56:13;9.40;99.90
9939;DHT22;5008;50.656;7.188;2023-12-22T10:58:39;9.30;99.90
9939;DHT22;5008;50.656;7.188;2023-12-22T11:01:11;9.20;99.90
9939;DHT22;5008;50.656;7.188;2023-12-22T11:03:44;9.20;99.90
9939;DHT22;5008;50.656;7.188;2023-12-22T11:06:12;9.20;99.90
9939;DHT22;5008;50.656;7.188;2023-12-22T11:08:43;9.10;99.90
9939;DHT22;5008;50.656;7.188;2023-12-22T11:11:15;9.10;99.90
9939;DHT22;5008;50.656;7.188;2023-12-22T11:13:43;9.10;99.90
9939;DHT22;5008;50.656;7.188;2023-12-22T11:16:11;9.10;99.90
9939;DHT22;5008;50.656;7.188;2023-12-22T11:18:39;9.10;99.90
9939;DHT22;5008;50.656;7.188;2023-12-22T11:21:08;9.10;99.90
9939;DHT22;5008;50.656;7.188;2023-12-22T11:23:38;9.10;99.90
9939;DHT22;5008;50.656;7.188;2023-12-22T11:26:08;9.20;99.90
9939;DHT22;5008;50.656;7.188;2023-12-22T11:28:38;9.20;99.90
9939;DHT22;5008;50.656;7.188;2023-12-22T11:31:07;9.10;99.90
9939;DHT22;5008;50.656;7.188;2023-12-22T11:33:36;9.10;99.90
9939;DHT22;5008;50.656;7.188;2023-12-22T11:36:04;9.10;99.90
9939;DHT22;5008;50.656;7.188;2023-12-22T11:38:31;9.10;99.90
9939;DHT22;5008;50.656;7.188;2023-12-22T11:41:00;9.20;99.90
9939;DHT22;5008;50.656;7.188;2023-12-22T11:43:28;9.30;99.90
9939;DHT22;5008;50.656;7.188;2023-12-22T11:45:56;9.40;99.90
9939;DHT22;5008;50.656;7.188;2023-12-22T11:48:27;9.50;99.90
9939;DHT22;5008;50.656;7.188;2023-12-22T11:50:55;9.60;99.90
9939;DHT22;5008;50.656;7.188;2023-12-22T11:53:23;9.60;99.90
9939;DHT22;5008;50.656;7.188;2023-12-22T11:56:01;9.70;99.90
9939;DHT22;5008;50.656;7.188;2023-12-22T11:58:38;9.80;99.90
9939;DHT22;5008;50.656;7.188;2023-12-22T12:01:07;9.80;99.90
9939;DHT22;5008;50.656;7.188;2023-12-22T12:03:37;9.80;99.90
9939;DHT22;5008;50.656;7.188;2023-12-22T12:06:16;9.90;99.90
9939;DHT22;5008;50.656;7.188;2023-12-22T12:08:43;10.00;99.90
9939;DHT22;5008;50.656;7.188;2023-12-22T12:11:11;10.00;99.90
9939;DHT22;5008;50.656;7.188;2023-12-22T12:13:42;10.00;99.90
9939;DHT22;5008;50.656;7.188;2023-12-22T12:16:11;10.00;99.90
9939;DHT22;5008;50.656;7.188;2023-12-22T12:18:39;10.10;99.90
9939;DHT22;5008;50.656;7.188;2023-12-22T12:21:06;10.20;99.90
9939;DHT22;5008;50.656;7.188;2023-12-22T12:23:34;10.20;99.90
9939;DHT22;5008;50.656;7.188;2023-12-22T12:26:01;10.20;99.90
9939;DHT22;5008;50.656;7.188;2023-12-22T12:28:30;10.20;99.90
9939;DHT22;5008;50.656;7.188;2023-12-22T12:30:58;10.30;99.90
9939;DHT22;5008;50.656;7.188;2023-12-22T12:33:26;10.30;99.90
9939;DHT22;5008;50.656;7.188;2023-12-22T12:35:54;10.40;99.90
9939;DHT22;5008;50.656;7.188;2023-12-22T12:38:25;10.30;99.90
9939;DHT22;5008;50.656;7.188;2023-12-22T12:40:57;10.40;99.90
9939;DHT22;5008;50.656;7.188;2023-12-22T12:43:24;10.40;99.90
9939;DHT22;5008;50.656;7.188;2023-12-22T12:45:53;10.40;99.90
9939;DHT22;5008;50.656;7.188;2023-12-22T12:48:21;10.40;99.90
9939;DHT22;5008;50.656;7.188;2023-12-22T12:50:50;10.40;99.90
9939;DHT22;5008;50.656;7.188;2023-12-22T12:53:17;10.40;99.90
9939;DHT22;5008;50.656;7.188;2023-12-22T12:55:44;10.40;99.90
9939;DHT22;5008;50.656;7.188;2023-12-22T12:58:11;10.40;99.90
9939;DHT22;5008;50.656;7.188;2023-12-22T13:00:38;10.40;99.90
9939;DHT22;5008;50.656;7.188;2023-12-22T13:03:06;10.50;99.90
9939;DHT22;5008;50.656;7.188;2023-12-22T13:05:33;10.50;99.90
9939;DHT22;5008;50.656;7.188;2023-12-22T13:08:07;10.50;99.90
9939;DHT22;5008;50.656;7.188;2023-12-22T13:10:34;10.50;99.90
9939;DHT22;5008;50.656;7.188;2023-12-22T13:13:01;10.50;99.90
9939;DHT22;5008;50.656;7.188;2023-12-22T13:15:28;10.50;99.90
9939;DHT22;5008;50.656;7.188;2023-12-22T13:17:55;10.50;99.90
9939;DHT22;5008;50.656;7.188;2023-12-22T13:20:24;10.50;99.90
9939;DHT22;5008;50.656;7.188;2023-12-22T13:22:51;10.50;99.90
9939;DHT22;5008;50.656;7.188;2023-12-22T13:25:18;10.50;99.90
9939;DHT22;5008;50.656;7.188;2023-12-22T13:27:46;10.30;99.90
9939;DHT22;5008;50.656;7.188;2023-12-22T13:30:14;10.30;99.90
9939;DHT22;5008;50.656;7.188;2023-12-22T13:32:41;10.30;99.90
9939;DHT22;5008;50.656;7.188;2023-12-22T13:35:08;10.30;99.90
9939;DHT22;5008;50.656;7.188;2023-12-22T13:37:41;10.40;99.90
9939;DHT22;5008;50.656;7.188;2023-12-22T13:40:10;10.40;99.90
9939;DHT22;5008;50.656;7.188;2023-12-22T13:42:38;10.40;99.90
9939;DHT22;5008;50.656;7.188;2023-12-22T13:45:10;10.50;99.90
9939;DHT22;5008;50.656;7.188;2023-12-22T13:47:40;10.50;99.90
9939;DHT22;5008;50.656;7.188;2023-12-22T13:50:13;10.50;99.90
9939;DHT22;5008;50.656;7.188;2023-12-22T13:52:42;10.50;99.90
9939;DHT22;5008;50.656;7.188;2023-12-22T13:55:10;10.60;99.90
9939;DHT22;5008;50.656;7.188;2023-12-22T13:57:38;10.60;99.90
9939;DHT22;5008;50.656;7.188;2023-12-22T14:00:26;10.60;99.90
9939;DHT22;5008;50.656;7.188;2023-12-22T14:02:53;10.60;99.90
9939;DHT22;5008;50.656;7.188;2023-12-22T14:05:20;10.60;99.90
9939;DHT22;5008;50.656;7.188;2023-12-22T14:07:48;10.60;99.90
9939;DHT22;5008;50.656;7.188;2023-12-22T14:10:23;10.60;99.90
9939;DHT22;5008;50.656;7.188;2023-12-22T14:12:50;10.60;99.90
9939;DHT22;5008;50.656;7.188;2023-12-22T14:15:17;10.60;99.90
9939;DHT22;5008;50.656;7.188;2023-12-22T14:17:43;10.60;99.90
9939;DHT22;5008;50.656;7.188;2023-12-22T14:20:10;10.60;99.90
9939;DHT22;5008;50.656;7.188;2023-12-22T14:22:37;10.60;99.90
9939;DHT22;5008;50.656;7.188;2023-12-22T14:25:07;10.60;99.90
9939;DHT22;5008;50.656;7.188;2023-12-22T14:27:34;10.60;99.90
9939;DHT22;5008;50.656;7.188;2023-12-22T14:30:01;10.60;99.90
9939;DHT22;5008;50.656;7.188;2023-12-22T14:32:28;10.60;99.90
9939;DHT22;5008;50.656;7.188;2023-12-22T14:34:55;10.60;99.90
9939;DHT22;5008;50.656;7.188;2023-12-22T14:37:22;10.60;99.90
9939;DHT22;5008;50.656;7.188;2023-12-22T14:39:49;10.70;99.90
9939;DHT22;5008;50.656;7.188;2023-12-22T14:42:17;10.60;99.90
9939;DHT22;5008;50.656;7.188;2023-12-22T14:44:44;10.70;99.90
9939;DHT22;5008;50.656;7.188;2023-12-22T14:47:11;10.60;99.90
9939;DHT22;5008;50.656;7.188;2023-12-22T14:49:37;10.60;99.90
9939;DHT22;5008;50.656;7.188;2023-12-22T14:52:04;10.60;99.90
9939;DHT22;5008;50.656;7.188;2023-12-22T14:54:31;10.60;99.90
9939;DHT22;5008;50.656;7.188;2023-12-22T14:56:58;10.70;99.90
9939;DHT22;5008;50.656;7.188;2023-12-22T14:59:27;10.60;99.90
9939;DHT22;5008;50.656;7.188;2023-12-22T15:01:54;10.60;99.90
9939;DHT22;5008;50.656;7.188;2023-12-22T15:04:20;10.60;99.90
9939;DHT22;5008;50.656;7.188;2023-12-22T15:06:48;10.60;99.90
9939;DHT22;5008;50.656;7.188;2023-12-22T15:09:15;10.50;99.90
9939;DHT22;5008;50.656;7.188;2023-12-22T15:11:42;10.50;99.90
9939;DHT22;5008;50.656;7.188;2023-12-22T15:14:10;10.50;99.90
9939;DHT22;5008;50.656;7.188;2023-12-22T15:16:41;10.50;99.90
9939;DHT22;5008;50.656;7.188;2023-12-22T15:19:10;10.50;99.90
9939;DHT22;5008;50.656;7.188;2023-12-22T15:21:37;10.40;99.90
9939;DHT22;5008;50.656;7.188;2023-12-22T15:24:04;10.30;99.90
9939;DHT22;5008;50.656;7.188;2023-12-22T15:26:31;10.30;99.90
9939;DHT22;5008;50.656;7.188;2023-12-22T15:28:59;10.20;99.90
9939;DHT22;5008;50.656;7.188;2023-12-22T15:31:26;10.20;99.90
9939;DHT22;5008;50.656;7.188;2023-12-22T15:33:57;10.10;99.90
9939;DHT22;5008;50.656;7.188;2023-12-22T15:36:24;10.10;99.90
9939;DHT22;5008;50.656;7.188;2023-12-22T15:38:52;10.10;99.90
9939;DHT22;5008;50.656;7.188;2023-12-22T15:41:19;10.20;99.90
9939;DHT22;5008;50.656;7.188;2023-12-22T15:43:48;10.10;99.90
9939;DHT22;5008;50.656;7.188;2023-12-22T15:46:15;10.10;99.90
9939;DHT22;5008;50.656;7.188;2023-12-22T15:48:41;10.00;99.90
9939;DHT22;5008;50.656;7.188;2023-12-22T15:51:12;10.00;99.90
9939;DHT22;5008;50.656;7.188;2023-12-22T15:53:39;10.00;99.90
9939;DHT22;5008;50.656;7.188;2023-12-22T15:56:07;10.10;99.90
9939;DHT22;5008;50.656;7.188;2023-12-22T15:58:36;10.10;99.90
9939;DHT22;5008;50.656;7.188;2023-12-22T16:01:12;10.10;99.90
9939;DHT22;5008;50.656;7.188;2023-12-22T16:03:40;10.10;99.90
9939;DHT22;5008;50.656;7.188;2023-12-22T16:06:07;10.20;99.90
9939;DHT22;5008;50.656;7.188;2023-12-22T16:08:35;10.10;99.90
9939;DHT22;5008;50.656;7.188;2023-12-22T16:11:03;10.20;99.90
9939;DHT22;5008;50.656;7.188;2023-12-22T16:13:31;10.20;99.90
9939;DHT22;5008;50.656;7.188;2023-12-22T16:15:59;10.20;99.90
9939;DHT22;5008;50.656;7.188;2023-12-22T16:18:26;10.20;99.90
9939;DHT22;5008;50.656;7.188;2023-12-22T16:20:54;10.20;99.90
9939;DHT22;5008;50.656;7.188;2023-12-22T16:23:21;10.20;99.90
9939;DHT22;5008;50.656;7.188;2023-12-22T16:25:50;10.20;99.90
9939;DHT22;5008;50.656;7.188;2023-12-22T16:28:17;10.10;99.90
9939;DHT22;5008;50.656;7.188;2023-12-22T16:30:45;10.20;99.90
9939;DHT22;5008;50.656;7.188;2023-12-22T16:33:13;10.10;99.90
9939;DHT22;5008;50.656;7.188;2023-12-22T16:35:40;10.10;99.90
9939;DHT22;5008;50.656;7.188;2023-12-22T16:38:07;10.10;99.90
9939;DHT22;5008;50.656;7.188;2023-12-22T16:40:34;10.20;99.90
9939;DHT22;5008;50.656;7.188;2023-12-22T16:43:03;10.20;99.90
9939;DHT22;5008;50.656;7.188;2023-12-22T16:45:30;10.20;99.90
9939;DHT22;5008;50.656;7.188;2023-12-22T16:48:01;10.20;99.90
9939;DHT22;5008;50.656;7.188;2023-12-22T16:50:28;10.20;99.90
9939;DHT22;5008;50.656;7.188;2023-12-22T16:52:55;10.20;99.90
9939;DHT22;5008;50.656;7.188;2023-12-22T16:55:22;10.20;99.90
9939;DHT22;5008;50.656;7.188;2023-12-22T16:57:49;10.20;99.90
9939;DHT22;5008;50.656;7.188;2023-12-22T17:00:18;10.20;99.90
9939;DHT22;5008;50.656;7.188;2023-12-22T17:02:47;10.20;99.90
9939;DHT22;5008;50.656;7.188;2023-12-22T17:05:14;10.20;99.90
9939;DHT22;5008;50.656;7.188;2023-12-22T17:07:41;10.10;99.90
9939;DHT22;5008;50.656;7.188;2023-12-22T17:10:09;10.10;99.90
9939;DHT22;5008;50.656;7.188;2023-12-22T17:12:36;10.10;99.90
9939;DHT22;5008;50.656;7.188;2023-12-22T17:15:03;10.10;99.90
9939;DHT22;5008;50.656;7.188;2023-12-22T17:17:34;10.10;99.90
9939;DHT22;5008;50.656;7.188;2023-12-22T17:20:03;10.10;99.90
9939;DHT22;5008;50.656;7.188;2023-12-22T17:22:31;10.00;99.90
9939;DHT22;5008;50.656;7.188;2023-12-22T17:24:57;10.00;99.90
9939;DHT22;5008;50.656;7.188;2023-12-22T17:27:24;9.90;99.90
9939;DHT22;5008;50.656;7.188;2023-12-22T17:29:51;10.00;99.90
9939;DHT22;5008;50.656;7.188;2023-12-22T17:32:18;10.00;99.90
9939;DHT22;5008;50.656;7.188;2023-12-22T17:34:46;10.00;99.90
9939;DHT22;5008;50.656;7.188;2023-12-22T17:37:13;10.00;99.90
9939;DHT22;5008;50.656;7.188;2023-12-22T17:39:40;10.00;99.90
9939;DHT22;5008;50.656;7.188;2023-12-22T17:42:06;10.00;99.90
9939;DHT22;5008;50.656;7.188;2023-12-22T17:44:36;10.00;99.90
9939;DHT22;5008;50.656;7.188;2023-12-22T17:47:03;10.00;99.90
9939;DHT22;5008;50.656;7.188;2023-12-22T17:49:30;10.10;99.90
9939;DHT22;5008;50.656;7.188;2023-12-22T17:51:59;10.10;99.90
9939;DHT22;5008;50.656;7.188;2023-12-22T17:54:26;10.10;99.90
9939;DHT22;5008;50.656;7.188;2023-12-22T17:56:52;10.20;99.90
9939;DHT22;5008;50.656;7.188;2023-12-22T17:59:20;10.20;99.90
9939;DHT22;5008;50.656;7.188;2023-12-22T18:01:47;10.20;99.90
9939;DHT22;5008;50.656;7.188;2023-12-22T18:04:15;10.20;99.90
9939;DHT22;5008;50.656;7.188;2023-12-22T18:06:42;10.20;99.90
9939;DHT22;5008;50.656;7.188;2023-12-22T18:09:10;10.30;99.90
9939;DHT22;5008;50.656;7.188;2023-12-22T18:11:39;10.30;99.90
9939;DHT22;5008;50.656;7.188;2023-12-22T18:14:07;10.30;99.90
9939;DHT22;5008;50.656;7.188;2023-12-22T18:16:37;10.40;99.90
9939;DHT22;5008;50.656;7.188;2023-12-22T18:19:04;10.30;99.90
9939;DHT22;5008;50.656;7.188;2023-12-22T18:21:31;10.30;99.90
9939;DHT22;5008;50.656;7.188;2023-12-22T18:23:58;10.30;99.90
9939;DHT22;5008;50.656;7.188;2023-12-22T18:26:26;10.30;99.90
9939;DHT22;5008;50.656;7.188;2023-12-22T18:28:53;10.40;99.90
9939;DHT22;5008;50.656;7.188;2023-12-22T18:31:20;10.30;99.90
9939;DHT22;5008;50.656;7.188;2023-12-22T18:33:54;10.40;99.90
9939;DHT22;5008;50.656;7.188;2023-12-22T18:36:21;10.30;99.90
9939;DHT22;5008;50.656;7.188;2023-12-22T18:38:48;10.40;99.90
9939;DHT22;5008;50.656;7.188;2023-12-22T18:41:15;10.40;99.90
9939;DHT22;5008;50.656;7.188;2023-12-22T18:43:57;10.40;99.90
9939;DHT22;5008;50.656;7.188;2023-12-22T18:46:24;10.50;99.90
9939;DHT22;5008;50.656;7.188;2023-12-22T18:48:51;10.50;99.90
9939;DHT22;5008;50.656;7.188;2023-12-22T18:51:18;10.50;99.90
9939;DHT22;5008;50.656;7.188;2023-12-22T18:53:53;10.50;99.90
9939;DHT22;5008;50.656;7.188;2023-12-22T18:56:21;10.50;99.90
9939;DHT22;5008;50.656;7.188;2023-12-22T18:58:48;10.50;99.90
9939;DHT22;5008;50.656;7.188;2023-12-22T19:01:16;10.50;99.90
9939;DHT22;5008;50.656;7.188;2023-12-22T19:03:43;10.40;99.90
9939;DHT22;5008;50.656;7.188;2023-12-22T19:06:12;10.40;99.90
9939;DHT22;5008;50.656;7.188;2023-12-22T19:08:40;10.40;99.90
9939;DHT22;5008;50.656;7.188;2023-12-22T19:11:07;10.30;99.90
9939;DHT22;5008;50.656;7.188;2023-12-22T19:13:34;10.30;99.90
9939;DHT22;5008;50.656;7.188;2023-12-22T19:16:01;10.30;99.90
9939;DHT22;5008;50.656;7.188;2023-12-22T19:18:32;10.30;99.90
9939;DHT22;5008;50.656;7.188;2023-12-22T19:20:59;10.30;99.90
9939;DHT22;5008;50.656;7.188;2023-12-22T19:23:26;10.30;99.90
9939;DHT22;5008;50.656;7.188;2023-12-22T19:25:53;10.20;99.90
9939;DHT22;5008;50.656;7.188;2023-12-22T19:28:20;10.20;99.90
9939;DHT22;5008;50.656;7.188;2023-12-22T19:30:47;10.30;99.90
9939;DHT22;5008;50.656;7.188;2023-12-22T19:33:20;10.20;99.90
9939;DHT22;5008;50.656;7.188;2023-12-22T19:35:48;10.30;99.90
9939;DHT22;5008;50.656;7.188;2023-12-22T19:38:15;10.30;99.90
9939;DHT22;5008;50.656;7.188;2023-12-22T19:40:45;10.30;99.90
9939;DHT22;5008;50.656;7.188;2023-12-22T19:43:13;10.40;99.90
9939;DHT22;5008;50.656;7.188;2023-12-22T19:45:39;10.40;99.90
9939;DHT22;5008;50.656;7.188;2023-12-22T19:48:06;10.40;99.90
9939;DHT22;5008;50.656;7.188;2023-12-22T19:50:33;10.40;99.90
9939;DHT22;5008;50.656;7.188;2023-12-22T19:53:02;10.40;99.90
9939;DHT22;5008;50.656;7.188;2023-12-22T19:55:29;10.40;99.90
9939;DHT22;5008;50.656;7.188;2023-12-22T19:58:04;10.40;99.90
9939;DHT22;5008;50.656;7.188;2023-12-22T20:00:30;10.40;99.90
9939;DHT22;5008;50.656;7.188;2023-12-22T20:02:57;10.40;99.90
9939;DHT22;5008;50.656;7.188;2023-12-22T20:05:24;10.40;99.90
9939;DHT22;5008;50.656;7.188;2023-12-22T20:07:52;10.40;99.90
9939;DHT22;5008;50.656;7.188;2023-12-22T20:10:20;10.40;99.90
9939;DHT22;5008;50.656;7.188;2023-12-22T20:12:48;10.30;99.90
9939;DHT22;5008;50.656;7.188;2023-12-22T20:15:17;10.30;99.90
9939;DHT22;5008;50.656;7.188;2023-12-22T20:17:45;10.40;99.90
9939;DHT22;5008;50.656;7.188;2023-12-22T20:20:12;10.50;99.90
9939;DHT22;5008;50.656;7.188;2023-12-22T20:22:46;10.40;99.90
9939;DHT22;5008;50.656;7.188;2023-12-22T20:25:12;10.50;99.90
9939;DHT22;5008;50.656;7.188;2023-12-22T20:27:41;10.40;99.90
9939;DHT22;5008;50.656;7.188;2023-12-22T20:30:08;10.40;99.90
9939;DHT22;5008;50.656;7.188;2023-12-22T20:32:35;10.40;99.90
9939;DHT22;5008;50.656;7.188;2023-12-22T20:35:02;10.40;99.90
9939;DHT22;5008;50.656;7.188;2023-12-22T20:37:31;10.40;99.90
9939;DHT22;5008;50.656;7.188;2023-12-22T20:39:58;10.30;99.90
9939;DHT22;5008;50.656;7.188;2023-12-22T20:42:24;10.50;99.90
9939;DHT22;5008;50.656;7.188;2023-12-22T20:44:52;10.40;99.90
9939;DHT22;5008;50.656;7.188;2023-12-22T20:47:27;10.40;99.90
9939;DHT22;5008;50.656;7.188;2023-12-22T20:49:53;10.30;99.90
9939;DHT22;5008;50.656;7.188;2023-12-22T20:52:20;10.30;99.90
9939;DHT22;5008;50.656;7.188;2023-12-22T20:54:47;10.30;99.90
9939;DHT22;5008;50.656;7.188;2023-12-22T20:57:14;10.30;99.90
9939;DHT22;5008;50.656;7.188;2023-12-22T20:59:41;10.30;99.90
9939;DHT22;5008;50.656;7.188;2023-12-22T21:02:11;10.20;99.90